createdAt,value
2018-09-15T00:01:41.581Z,75.45
2018-09-15T00:04:13.920Z,75.90
2018-09-15T00:06:46.249Z,75.48
2018-09-15T00:09:18.605Z,75.87
2018-09-15T00:11:50.965Z,76.02
2018-09-15T00:14:23.272Z,75.74
2018-09-15T00:16:55.579Z,75.80
2018-09-15T00:19:27.934Z,76.05
2018-09-15T00:22:00.277Z,75.82
2018-09-15T00:24:32.561Z,75.77
2018-09-15T00:27:04.901Z,75.55
2018-09-15T00:29:37.195Z,75.35
2018-09-15T00:32:09.482Z,76.11
2018-09-15T00:34:41.778Z,75.76
2018-09-15T00:37:14.070Z,75.91
2018-09-15T00:39:46.373Z,76.47
2018-09-15T00:42:18.666Z,76.22
2018-09-15T00:44:51.140Z,76.32
2018-09-15T00:47:23.410Z,76.74
2018-09-15T00:49:55.748Z,76.55
2018-09-15T00:52:28.019Z,76.71
2018-09-15T00:55:00.360Z,77.50
2018-09-15T00:57:32.645Z,77.33
2018-09-15T01:00:06.257Z,77.47
2018-09-15T01:02:38.520Z,76.72
2018-09-15T01:05:10.838Z,77.10
2018-09-15T01:07:43.209Z,76.46
2018-09-15T01:10:15.542Z,76.92
2018-09-15T01:12:47.828Z,77.20
2018-09-15T01:15:20.089Z,77.51
2018-09-15T01:17:52.368Z,76.63
2018-09-15T01:20:24.665Z,76.79
2018-09-15T01:22:56.943Z,77.63
2018-09-15T01:25:29.208Z,77.47
2018-09-15T01:28:01.473Z,77.33
2018-09-15T01:30:33.786Z,77.56
2018-09-15T01:33:06.473Z,76.79
2018-09-15T01:35:38.738Z,77.75
2018-09-15T01:38:11.013Z,77.67
2018-09-15T01:40:43.244Z,78.57
2018-09-15T01:43:15.500Z,79.90
2018-09-15T01:45:47.765Z,81.68
2018-09-15T01:48:20.041Z,81.40
2018-09-15T01:50:52.345Z,82.32
2018-09-15T01:53:24.591Z,83.17
2018-09-15T01:55:56.834Z,81.79
2018-09-15T01:58:29.102Z,82.01
2018-09-15T02:01:01.326Z,83.35
2018-09-15T02:03:33.609Z,83.72
2018-09-15T02:06:05.933Z,84.23
2018-09-15T02:08:38.235Z,84.38
2018-09-15T02:11:10.470Z,84.68
2018-09-15T02:13:42.768Z,84.74
2018-09-15T02:16:15.077Z,83.68
2018-09-15T02:18:47.336Z,84.01
2018-09-15T02:21:19.566Z,84.54
2018-09-15T02:23:51.836Z,84.21
2018-09-15T02:26:24.102Z,84.15
2018-09-15T02:28:56.431Z,83.86
2018-09-15T02:31:28.650Z,83.39
2018-09-15T02:34:00.897Z,83.98
2018-09-15T02:36:33.261Z,84.67
2018-09-15T02:39:06.701Z,84.48
2018-09-15T02:41:38.948Z,84.19
2018-09-15T02:44:11.210Z,84.25
2018-09-15T02:46:43.496Z,84.71
2018-09-15T02:49:15.713Z,84.30
2018-09-15T02:51:47.999Z,84.40
2018-09-15T02:54:20.257Z,83.55
2018-09-15T02:56:52.520Z,84.05
2018-09-15T02:59:24.846Z,83.61
2018-09-15T03:01:57.101Z,83.30
2018-09-15T03:04:29.376Z,83.10
2018-09-15T03:07:01.665Z,83.29
2018-09-15T03:09:33.897Z,83.56
2018-09-15T03:12:06.537Z,83.77
2018-09-15T03:14:38.768Z,83.71
2018-09-15T03:17:11.046Z,84.02
2018-09-15T03:19:43.353Z,83.49
2018-09-15T03:22:15.695Z,84.24
2018-09-15T03:24:47.951Z,84.01
2018-09-15T03:27:20.273Z,84.13
2018-09-15T03:29:52.536Z,83.99
2018-09-15T03:32:24.828Z,83.85
2018-09-15T03:34:57.088Z,84.04
2018-09-15T03:37:29.368Z,82.93
2018-09-15T03:40:01.684Z,83.85
2018-09-15T03:42:33.937Z,83.60
2018-09-15T03:45:06.226Z,83.17
2018-09-15T03:47:38.606Z,83.13
2018-09-15T03:50:10.861Z,82.63
2018-09-15T03:52:43.180Z,82.33
2018-09-15T03:55:15.428Z,82.35
2018-09-15T03:57:47.726Z,82.11
2018-09-15T04:00:19.992Z,82.22
2018-09-15T04:02:52.245Z,82.54
2018-09-15T04:05:24.544Z,82.31
2018-09-15T04:07:56.859Z,82.15
2018-09-15T04:10:29.125Z,81.33
2018-09-15T04:13:01.412Z,81.18
2018-09-15T04:15:33.641Z,81.66
2018-09-15T04:18:05.952Z,81.56
2018-09-15T04:20:38.181Z,81.52
2018-09-15T04:23:10.420Z,81.64
2018-09-15T04:25:43.139Z,81.79
2018-09-15T04:28:15.412Z,81.96
2018-09-15T04:30:47.660Z,81.81
2018-09-15T04:33:19.914Z,81.80
2018-09-15T04:35:52.213Z,81.42
2018-09-15T04:38:24.436Z,81.52
2018-09-15T04:40:56.684Z,81.79
2018-09-15T04:43:28.956Z,81.72
2018-09-15T04:46:01.220Z,80.76
2018-09-15T04:48:33.469Z,81.38
2018-09-15T04:51:05.792Z,81.51
2018-09-15T04:53:38.073Z,81.23
2018-09-15T04:56:10.354Z,80.54
2018-09-15T04:58:42.887Z,81.86
2018-09-15T05:01:15.086Z,81.03
2018-09-15T05:03:47.370Z,81.01
2018-09-15T05:06:19.752Z,80.84
2018-09-15T05:08:52.011Z,80.96
2018-09-15T05:11:24.304Z,81.17
2018-09-15T05:13:56.561Z,80.87
2018-09-15T05:16:28.815Z,80.76
2018-09-15T05:19:01.122Z,80.66
2018-09-15T05:21:33.405Z,80.97
2018-09-15T05:24:05.851Z,80.60
2018-09-15T05:26:38.089Z,80.13
2018-09-15T05:29:10.393Z,80.20
2018-09-15T05:31:42.781Z,79.59
2018-09-15T05:34:15.018Z,79.62
2018-09-15T05:36:47.257Z,80.25
2018-09-15T05:39:19.553Z,80.53
2018-09-15T05:41:51.856Z,79.85
2018-09-15T05:44:24.161Z,80.66
2018-09-15T05:46:56.444Z,79.66
2018-09-15T05:49:28.750Z,79.15
2018-09-15T05:52:01.028Z,78.76
2018-09-15T05:54:33.333Z,78.59
2018-09-15T05:57:05.625Z,78.45
2018-09-15T05:59:37.933Z,78.23
2018-09-15T06:02:10.164Z,78.07
2018-09-15T06:04:42.488Z,77.99
2018-09-15T06:07:14.793Z,77.32
2018-09-15T06:09:47.053Z,77.01
2018-09-15T06:12:19.351Z,77.47
2018-09-15T06:14:51.616Z,76.96
2018-09-15T06:17:23.922Z,76.74
2018-09-15T06:19:56.193Z,76.64
2018-09-15T06:22:28.554Z,75.99
2018-09-15T06:25:00.852Z,75.35
2018-09-15T06:27:33.186Z,73.62
2018-09-15T06:30:06.264Z,74.12
2018-09-15T06:32:38.598Z,73.80
2018-09-15T06:35:10.860Z,72.88
2018-09-15T06:37:43.297Z,72.87
2018-09-15T06:40:15.628Z,72.19
2018-09-15T06:42:47.903Z,71.10
2018-09-15T06:45:20.182Z,70.22
2018-09-15T06:47:52.457Z,68.74
2018-09-15T06:50:24.785Z,67.49
2018-09-15T06:52:57.118Z,68.46
2018-09-15T06:55:29.519Z,67.71
2018-09-15T06:58:01.766Z,64.82
2018-09-15T07:00:34.068Z,60.39
2018-09-15T07:03:06.385Z,58.54
2018-09-15T07:05:38.691Z,57.60
2018-09-15T07:08:11.038Z,56.25
2018-09-15T07:10:43.353Z,56.79
2018-09-15T07:13:15.646Z,55.44
2018-09-15T07:15:48.000Z,56.25
2018-09-15T07:18:20.299Z,56.86
2018-09-15T07:20:52.727Z,54.69
2018-09-15T07:23:25.754Z,55.35
2018-09-15T07:25:58.193Z,55.47
2018-09-15T07:28:30.457Z,55.85
2018-09-15T07:31:02.813Z,56.36
2018-09-15T07:33:35.064Z,56.63
2018-09-15T07:36:07.413Z,55.29
2018-09-15T07:38:39.748Z,54.78
2018-09-15T07:41:12.134Z,54.80
2018-09-15T07:43:44.424Z,55.56
2018-09-15T07:46:16.740Z,54.98
2018-09-15T07:48:49.025Z,55.30
2018-09-15T07:51:21.389Z,54.72
2018-09-15T07:53:53.746Z,54.74
2018-09-15T07:56:26.105Z,53.79
2018-09-15T07:58:58.388Z,52.54
2018-09-15T08:01:30.770Z,52.04
2018-09-15T08:04:03.081Z,51.18
2018-09-15T08:06:35.450Z,50.04
2018-09-15T08:09:08.000Z,48.82
2018-09-15T08:11:40.389Z,49.69
2018-09-15T08:14:12.654Z,50.01
2018-09-15T08:16:44.998Z,50.03
2018-09-15T08:19:17.296Z,49.11
2018-09-15T08:21:49.674Z,46.58
2018-09-15T08:24:21.957Z,46.85
2018-09-15T08:26:54.261Z,47.79
2018-09-15T08:29:26.566Z,48.36
2018-09-15T08:31:58.966Z,47.74
2018-09-15T08:34:31.304Z,47.66
2018-09-15T08:37:03.609Z,48.08
2018-09-15T08:39:36.021Z,46.62
2018-09-15T08:42:08.314Z,45.73
2018-09-15T08:44:40.856Z,46.30
2018-09-15T08:47:13.177Z,46.27
2018-09-15T08:49:45.505Z,47.48
2018-09-15T08:52:17.819Z,46.91
2018-09-15T08:54:50.137Z,45.17
2018-09-15T08:57:22.478Z,45.55
2018-09-15T08:59:54.844Z,45.25
2018-09-15T09:02:27.153Z,43.86
2018-09-15T09:04:59.565Z,45.43
2018-09-15T09:07:31.876Z,43.83
2018-09-15T09:10:04.280Z,43.27
2018-09-15T09:12:36.592Z,41.11
2018-09-15T09:15:09.018Z,39.80
2018-09-15T09:17:41.348Z,39.28
2018-09-15T09:20:13.735Z,37.89
2018-09-15T09:22:46.237Z,36.81
2018-09-15T09:25:18.606Z,37.34
2018-09-15T09:27:50.913Z,36.65
2018-09-15T09:30:23.377Z,36.30
2018-09-15T09:32:55.719Z,36.95
2018-09-15T09:35:28.091Z,36.49
2018-09-15T09:38:00.432Z,36.85
2018-09-15T09:40:32.845Z,37.25
2018-09-15T09:43:05.189Z,36.68
2018-09-15T09:45:37.595Z,36.89
2018-09-15T09:48:10.002Z,36.07
2018-09-15T09:50:42.588Z,37.24
2018-09-15T09:53:14.841Z,38.33
2018-09-15T09:55:47.253Z,37.62
2018-09-15T09:58:19.658Z,37.46
2018-09-15T10:00:57.804Z,38.59
2018-09-15T10:03:30.135Z,38.56
2018-09-15T10:06:02.497Z,37.91
2018-09-15T10:08:34.870Z,37.92
2018-09-15T10:11:07.178Z,37.43
2018-09-15T10:13:39.504Z,37.50
2018-09-15T10:16:11.901Z,37.78
2018-09-15T10:18:44.209Z,38.08
2018-09-15T10:21:16.616Z,38.77
2018-09-15T10:23:48.943Z,38.43
2018-09-15T10:26:21.269Z,38.86
2018-09-15T10:28:53.704Z,38.77
2018-09-15T10:31:26.001Z,38.84
2018-09-15T10:33:58.339Z,38.30
2018-09-15T10:36:30.696Z,37.77
2018-09-15T10:39:04.177Z,38.49
2018-09-15T10:41:36.513Z,38.44
2018-09-15T10:44:08.865Z,35.76
2018-09-15T10:46:41.189Z,36.92
2018-09-15T10:49:13.588Z,37.08
2018-09-15T10:51:45.972Z,37.05
2018-09-15T10:54:18.424Z,36.73
2018-09-15T10:56:50.772Z,37.04
2018-09-15T10:59:23.113Z,36.87
2018-09-15T11:01:55.420Z,34.95
2018-09-15T11:04:27.757Z,35.14
2018-09-15T11:07:00.099Z,35.72
2018-09-15T11:09:32.421Z,35.63
2018-09-15T11:12:04.721Z,35.41
2018-09-15T11:14:37.071Z,35.53
2018-09-15T11:17:09.423Z,34.89
2018-09-15T11:19:41.777Z,34.76
2018-09-15T11:22:14.126Z,35.43
2018-09-15T11:24:46.497Z,34.93
2018-09-15T11:27:18.872Z,35.46
2018-09-15T11:29:51.253Z,34.40
2018-09-15T11:32:23.721Z,34.58
2018-09-15T11:34:56.041Z,34.69
2018-09-15T11:37:28.410Z,35.85
2018-09-15T11:40:00.668Z,34.51
2018-09-15T11:42:33.027Z,33.93
2018-09-15T11:45:05.616Z,35.26
2018-09-15T11:47:38.010Z,34.74
2018-09-15T11:50:10.320Z,34.56
2018-09-15T11:52:42.668Z,34.32
2018-09-15T11:55:15.028Z,33.85
2018-09-15T11:57:47.406Z,34.73
2018-09-15T12:00:23.085Z,34.21
2018-09-15T12:02:55.467Z,33.95
2018-09-15T12:05:27.804Z,34.82
2018-09-15T12:08:00.135Z,34.96
2018-09-15T12:10:32.441Z,35.27
2018-09-15T12:13:04.779Z,34.90
2018-09-15T12:15:37.121Z,34.13
2018-09-15T12:18:09.453Z,34.23
2018-09-15T12:20:42.197Z,35.43
2018-09-15T12:23:14.526Z,33.54
2018-09-15T12:25:46.821Z,34.62
2018-09-15T12:28:19.191Z,35.29
2018-09-15T12:30:51.588Z,34.09
2018-09-15T12:33:24.059Z,35.05
2018-09-15T12:35:56.330Z,34.98
2018-09-15T12:38:28.718Z,34.61
2018-09-15T12:41:01.039Z,34.50
2018-09-15T12:43:33.363Z,34.64
2018-09-15T12:46:05.740Z,34.26
2018-09-15T12:48:38.033Z,33.33
2018-09-15T12:51:10.622Z,32.52
2018-09-15T12:53:43.038Z,34.34
2018-09-15T12:56:15.356Z,34.33
2018-09-15T12:58:47.713Z,34.94
2018-09-15T13:01:20.065Z,34.72
2018-09-15T13:03:52.451Z,34.76
2018-09-15T13:06:24.816Z,34.39
2018-09-15T13:08:57.234Z,34.26
2018-09-15T13:11:30.439Z,34.49
2018-09-15T13:14:02.807Z,34.63
2018-09-15T13:16:35.157Z,34.85
2018-09-15T13:19:13.254Z,34.12
2018-09-15T13:21:45.585Z,34.25
2018-09-15T13:24:17.894Z,35.51
2018-09-15T13:26:50.219Z,34.39
2018-09-15T13:29:22.592Z,33.99
2018-09-15T13:31:54.876Z,35.17
2018-09-15T13:34:27.328Z,34.68
2018-09-15T13:36:59.597Z,34.62
2018-09-15T13:39:31.884Z,34.17
2018-09-15T13:42:11.063Z,34.46
2018-09-15T13:44:43.357Z,35.29
2018-09-15T13:47:15.683Z,34.96
2018-09-15T13:49:47.961Z,35.54
2018-09-15T13:52:20.282Z,36.29
2018-09-15T13:54:52.584Z,34.96
2018-09-15T13:57:24.893Z,36.46
2018-09-15T13:59:57.201Z,36.43
2018-09-15T14:02:29.656Z,36.64
2018-09-15T14:05:01.933Z,36.42
2018-09-15T14:07:34.233Z,36.91
2018-09-15T14:10:07.049Z,37.62
2018-09-15T14:12:39.647Z,37.89
2018-09-15T14:15:11.956Z,37.30
2018-09-15T14:17:44.272Z,36.20
2018-09-15T14:20:16.567Z,37.07
2018-09-15T14:22:48.871Z,37.11
2018-09-15T14:25:21.162Z,36.40
2018-09-15T14:27:53.530Z,36.20
2018-09-15T14:30:25.806Z,35.82
2018-09-15T14:32:58.104Z,36.35
2018-09-15T14:35:30.422Z,35.99
2018-09-15T14:38:02.729Z,35.52
2018-09-15T14:40:35.065Z,35.26
2018-09-15T14:43:07.597Z,35.13
2018-09-15T14:45:39.914Z,35.96
2018-09-15T14:48:12.185Z,35.20
2018-09-15T14:50:44.528Z,34.88
2018-09-15T14:53:16.820Z,35.06
2018-09-15T14:55:49.141Z,35.70
2018-09-15T14:58:21.426Z,36.32
2018-09-15T15:00:53.757Z,35.92
2018-09-15T15:03:26.176Z,36.51
2018-09-15T15:05:58.481Z,36.18
2018-09-15T15:08:30.805Z,36.88
2018-09-15T15:11:03.065Z,36.49
2018-09-15T15:13:35.356Z,36.42
2018-09-15T15:16:07.653Z,35.64
2018-09-15T15:18:39.978Z,36.38
2018-09-15T15:21:12.240Z,35.17
2018-09-15T15:23:44.572Z,35.83
2018-09-15T15:26:16.859Z,34.79
2018-09-15T15:28:49.162Z,35.81
2018-09-15T15:31:21.578Z,36.87
2018-09-15T15:33:53.883Z,36.73
2018-09-15T15:36:26.121Z,35.49
2018-09-15T15:38:58.717Z,37.46
2018-09-15T15:41:31.029Z,38.04
2018-09-15T15:44:03.432Z,36.79
2018-09-15T15:46:35.877Z,37.24
2018-09-15T15:49:08.265Z,37.20
2018-09-15T15:51:40.622Z,37.25
2018-09-15T15:54:13.011Z,36.98
2018-09-15T15:56:45.326Z,38.10
2018-09-15T15:59:18.028Z,37.56
2018-09-15T16:01:50.382Z,37.58
2018-09-15T16:04:22.751Z,37.35
2018-09-15T16:06:55.001Z,38.22
2018-09-15T16:09:27.291Z,38.15
2018-09-15T16:11:59.681Z,36.96
2018-09-15T16:14:31.994Z,37.24
2018-09-15T16:17:04.379Z,37.31
2018-09-15T16:19:36.729Z,38.17
2018-09-15T16:22:09.132Z,38.13
2018-09-15T16:24:41.520Z,37.63
2018-09-15T16:27:13.925Z,37.91
2018-09-15T16:29:46.256Z,38.31
2018-09-15T16:32:18.641Z,37.80
2018-09-15T16:34:50.945Z,38.81
2018-09-15T16:37:23.252Z,39.09
2018-09-15T16:39:55.515Z,39.60
2018-09-15T16:42:27.791Z,39.08
2018-09-15T16:45:00.136Z,39.24
2018-09-15T16:47:32.770Z,39.76
2018-09-15T16:50:05.099Z,40.24
2018-09-15T16:52:37.347Z,40.22
2018-09-15T16:55:09.703Z,40.79
2018-09-15T16:57:42.013Z,40.90
2018-09-15T17:00:14.329Z,41.27
2018-09-15T17:02:46.657Z,41.14
2018-09-15T17:05:18.966Z,41.39
2018-09-15T17:07:51.336Z,40.70
2018-09-15T17:10:23.668Z,41.49
2018-09-15T17:12:55.978Z,42.04
2018-09-15T17:15:28.352Z,42.26
2018-09-15T17:18:00.631Z,42.33
2018-09-15T17:20:32.980Z,43.62
2018-09-15T17:23:05.381Z,44.30
2018-09-15T17:25:37.794Z,44.71
2018-09-15T17:28:10.121Z,44.50
2018-09-15T17:30:42.450Z,45.41
2018-09-15T17:33:14.700Z,45.05
2018-09-15T17:35:47.072Z,45.38
2018-09-15T17:38:19.356Z,46.04
2018-09-15T17:40:51.693Z,45.89
2018-09-15T17:43:23.992Z,47.46
2018-09-15T17:45:56.380Z,47.42
2018-09-15T17:48:28.763Z,47.97
2018-09-15T17:51:01.102Z,49.14
2018-09-15T17:53:33.362Z,50.27
2018-09-15T17:56:05.732Z,49.98
2018-09-15T17:58:38.059Z,51.47
2018-09-15T18:01:10.372Z,51.56
2018-09-15T18:03:42.632Z,51.39
2018-09-15T18:06:14.980Z,51.13
2018-09-15T18:08:47.278Z,52.61
2018-09-15T18:11:19.615Z,52.66
2018-09-15T18:13:51.977Z,52.55
2018-09-15T18:16:24.279Z,52.55
2018-09-15T18:18:56.665Z,52.82
2018-09-15T18:21:28.973Z,53.10
2018-09-15T18:24:01.330Z,53.32
2018-09-15T18:26:38.120Z,53.70
2018-09-15T18:29:10.436Z,54.64
2018-09-15T18:31:42.721Z,54.91
2018-09-15T18:34:15.057Z,55.26
2018-09-15T18:36:47.513Z,55.32
2018-09-15T18:39:19.713Z,55.08
2018-09-15T18:41:53.048Z,55.70
2018-09-15T18:44:25.384Z,56.30
2018-09-15T18:46:57.665Z,56.23
2018-09-15T18:49:30.026Z,56.84
2018-09-15T18:52:02.337Z,56.59
2018-09-15T18:54:34.741Z,56.44
2018-09-15T18:57:07.157Z,56.66
2018-09-15T18:59:39.595Z,57.31
2018-09-15T19:02:11.915Z,57.57
2018-09-15T19:04:44.314Z,57.56
2018-09-15T19:07:16.619Z,58.17
2018-09-15T19:09:48.937Z,58.71
2018-09-15T19:12:21.304Z,58.42
2018-09-15T19:14:53.782Z,58.22
2018-09-15T19:17:26.074Z,58.63
2018-09-15T19:19:58.493Z,59.17
2018-09-15T19:22:30.897Z,59.24
2018-09-15T19:25:03.368Z,59.90
2018-09-15T19:27:35.754Z,59.58
2018-09-15T19:30:08.097Z,59.68
2018-09-15T19:32:40.498Z,60.24
2018-09-15T19:35:12.845Z,60.05
2018-09-15T19:37:45.224Z,60.81
2018-09-15T19:40:17.590Z,60.96
2018-09-15T19:42:50.046Z,60.64
2018-09-15T19:45:22.453Z,61.33
2018-09-15T19:47:54.797Z,61.23
2018-09-15T19:50:27.229Z,61.05
2018-09-15T19:52:59.629Z,61.23
2018-09-15T19:55:31.970Z,61.05
2018-09-15T19:58:04.618Z,61.62
2018-09-15T20:00:37.041Z,61.69
2018-09-15T20:03:09.408Z,60.77
2018-09-15T20:05:41.768Z,61.00
2018-09-15T20:08:14.169Z,61.31
2018-09-15T20:10:46.537Z,61.76
2018-09-15T20:13:18.880Z,61.35
2018-09-15T20:15:50.113Z,60.77
2018-09-15T20:18:21.373Z,60.91
2018-09-15T20:20:52.581Z,60.47
2018-09-15T20:23:24.967Z,60.85
2018-09-15T20:25:57.300Z,61.39
2018-09-15T20:28:29.721Z,61.45
2018-09-15T20:31:02.190Z,61.57
2018-09-15T20:33:34.638Z,62.14
2018-09-15T20:36:07.080Z,62.12
2018-09-15T20:38:39.598Z,62.43
2018-09-15T20:41:12.029Z,63.04
2018-09-15T20:43:44.515Z,62.54
2018-09-15T20:46:16.911Z,63.50
2018-09-15T20:48:49.302Z,63.79
2018-09-15T20:51:21.717Z,63.44
2018-09-15T20:53:54.015Z,64.04
2018-09-15T20:56:26.358Z,64.26
2018-09-15T20:58:58.741Z,64.14
2018-09-15T21:01:31.097Z,64.47
2018-09-15T21:04:03.566Z,63.88
2018-09-15T21:06:35.924Z,63.85
2018-09-15T21:09:09.811Z,64.35
2018-09-15T21:11:42.191Z,64.70
2018-09-15T21:14:14.577Z,64.44
2018-09-15T21:16:46.993Z,64.78
2018-09-15T21:19:19.287Z,65.06
2018-09-15T21:21:51.748Z,65.08
2018-09-15T21:24:24.168Z,65.11
2018-09-15T21:26:56.521Z,65.29
2018-09-15T21:29:28.839Z,65.16
2018-09-15T21:32:01.208Z,65.73
2018-09-15T21:34:33.560Z,65.72
2018-09-15T21:37:06.471Z,65.14
2018-09-15T21:39:38.809Z,65.17
2018-09-15T21:42:11.181Z,65.08
2018-09-15T21:44:43.560Z,65.05
2018-09-15T21:47:15.911Z,65.33
2018-09-15T21:49:48.298Z,65.38
2018-09-15T21:52:20.659Z,65.27
2018-09-15T21:54:53.437Z,65.74
2018-09-15T21:57:25.806Z,66.18
2018-09-15T21:59:58.168Z,65.56
2018-09-15T22:02:31.753Z,65.85
2018-09-15T22:05:04.204Z,66.13
2018-09-15T22:07:36.748Z,66.21
2018-09-15T22:10:09.088Z,65.98
2018-09-15T22:12:41.487Z,66.07
2018-09-15T22:15:20.354Z,65.92
2018-09-15T22:17:53.608Z,66.65
2018-09-15T22:20:26.271Z,66.39
2018-09-15T22:22:58.653Z,66.30
2018-09-15T22:25:30.999Z,66.87
2018-09-15T22:28:03.380Z,66.95
2018-09-15T22:30:35.651Z,67.03
2018-09-15T22:33:08.005Z,67.65
2018-09-15T22:35:40.326Z,66.94
2018-09-15T22:38:12.650Z,67.11
2018-09-15T22:40:44.948Z,67.50
2018-09-15T22:43:17.230Z,67.84
2018-09-15T22:45:49.607Z,67.90
2018-09-15T22:48:21.923Z,67.81
2018-09-15T22:50:54.269Z,68.35
2018-09-15T22:53:26.602Z,68.40
2018-09-15T22:55:58.957Z,68.16
2018-09-15T22:58:31.296Z,68.12
2018-09-15T23:01:03.724Z,67.86
2018-09-15T23:03:36.058Z,68.37
2018-09-15T23:06:08.445Z,68.71
2018-09-15T23:08:40.782Z,69.00
2018-09-15T23:11:13.156Z,69.02
2018-09-15T23:13:45.457Z,68.77
2018-09-15T23:16:17.792Z,68.76
2018-09-15T23:18:50.136Z,68.81
2018-09-15T23:21:22.482Z,69.05
2018-09-15T23:23:54.957Z,69.31
2018-09-15T23:26:27.229Z,69.41
2018-09-15T23:28:59.553Z,69.94
2018-09-15T23:31:31.971Z,69.69
2018-09-15T23:34:04.372Z,70.07
2018-09-15T23:36:36.708Z,69.51
2018-09-15T23:39:09.064Z,69.46
2018-09-15T23:41:41.376Z,69.65
2018-09-15T23:44:13.736Z,69.28
2018-09-15T23:46:46.126Z,69.54
2018-09-15T23:49:18.581Z,69.67
2018-09-15T23:51:50.905Z,69.36
2018-09-15T23:54:23.306Z,69.57
2018-09-15T23:56:55.631Z,69.41
2018-09-15T23:59:28.097Z,69.78
